Time;durP1;ratioP1;P1;durP2;ratioP2;P2;SDS_P1;SDS_P2;PMS_P1;PMS_P2;Temp;Humidity;BMP_temperature;BMP_pressure;BME280_temperature;BME280_humidity;BME280_pressure;Samples;Min_cycle;Max_cycle;Signal;HPM_P1;HPM_P2
2022/06/11 00:01:25;;;;;;;8.63;4.38;;;;;;;;;;5066138;28;20068;-58
2022/06/11 00:03:54;;;;;;;6.60;3.80;;;;;;;;;;5067641;28;20093;-59
2022/06/11 00:06:20;;;;;;;5.97;3.70;;;;;;;;;;5067366;28;20035;-59
2022/06/11 00:08:46;;;;;;;15.55;7.78;;;;;;;;;;5066711;28;20036;-58
2022/06/11 00:11:13;;;;;;;8.23;5.53;;;;;;;;;;5069582;28;20036;-58
2022/06/11 00:13:39;;;;;;;8.90;4.95;;;;;;;;;;5069217;28;20033;-58
2022/06/11 00:16:05;;;;;;;5.78;3.78;;;;;;;;;;5075236;28;20498;-59
2022/06/11 00:18:32;;;;;;;6.10;4.50;;;;;;;;;;5068346;28;20029;-59
2022/06/11 00:20:58;;;;;;;8.68;3.78;;;;;;;;;;5071567;28;20031;-59
2022/06/11 00:23:24;;;;;;;7.18;3.65;;;;;;;;;;5072142;28;20067;-58
2022/06/11 00:25:49;;;;;;;10.15;3.70;;;;;;;;;;5070729;28;20028;-59
2022/06/11 00:28:15;;;;;;;5.50;4.00;;;;;;;;;;5071081;28;20044;-59
2022/06/11 00:30:40;;;;;;;9.13;3.83;;;;;;;;;;5068199;28;20032;-60
2022/06/11 00:33:06;;;;;;;5.63;3.55;;;;;;;;;;5072061;28;20426;-58
2022/06/11 00:35:33;;;;;;;8.35;3.95;;;;;;;;;;5071658;28;20199;-58
2022/06/11 00:37:58;;;;;;;5.90;3.72;;;;;;;;;;5065164;28;20123;-59
2022/06/11 00:40:26;;;;;;;5.93;3.40;;;;;;;;;;5065668;28;20403;-60
2022/06/11 00:42:51;;;;;;;5.90;3.80;;;;;;;;;;5059818;28;20024;-59
2022/06/11 00:45:33;;;;;;;4.90;3.72;;;;;;;;;;5065734;28;20608;-59
2022/06/11 00:48:03;;;;;;;7.25;3.80;;;;;;;;;;5053273;28;20113;-58
2022/06/11 00:50:38;;;;;;;6.30;3.80;;;;;;;;;;5066476;28;20159;-59
2022/06/11 00:53:12;;;;;;;10.93;3.70;;;;;;;;;;5071245;28;20047;-59
2022/06/11 00:55:39;;;;;;;7.25;3.90;;;;;;;;;;5064087;28;20096;-58
2022/06/11 00:58:09;;;;;;;6.47;3.83;;;;;;;;;;5067717;28;20033;-58
2022/06/11 01:00:48;;;;;;;5.70;3.65;;;;;;;;;;5070326;28;20526;-59
2022/06/11 01:03:19;;;;;;;5.47;3.50;;;;;;;;;;5073005;28;20089;-58
2022/06/11 01:05:54;;;;;;;8.15;3.85;;;;;;;;;;5064522;28;20035;-59
2022/06/11 01:08:38;;;;;;;7.50;3.83;;;;;;;;;;5069626;28;20025;-59
2022/06/11 01:11:22;;;;;;;6.03;4.13;;;;;;;;;;5068438;28;20056;-59
2022/06/11 01:13:51;;;;;;;7.75;3.63;;;;;;;;;;5066408;28;20431;-58
2022/06/11 01:16:22;;;;;;;7.55;5.13;;;;;;;;;;5063639;28;20124;-58
2022/06/11 01:18:53;;;;;;;5.65;3.83;;;;;;;;;;5068259;28;20069;-59
2022/06/11 01:21:36;;;;;;;6.78;4.07;;;;;;;;;;5063783;28;20103;-58
2022/06/11 01:24:04;;;;;;;5.55;3.97;;;;;;;;;;5060345;28;20029;-59
2022/06/11 01:26:42;;;;;;;5.78;3.72;;;;;;;;;;5065859;28;20392;-59
2022/06/11 01:29:46;;;;;;;5.47;3.75;;;;;;;;;;5064453;28;20058;-59
2022/06/11 01:32:14;;;;;;;5.32;3.67;;;;;;;;;;5063789;28;20505;-59
2022/06/11 01:34:54;;;;;;;5.97;4.13;;;;;;;;;;5070483;28;20028;-58
2022/06/11 01:37:47;;;;;;;5.63;3.75;;;;;;;;;;5062283;28;20136;-58
2022/06/11 01:40:42;;;;;;;6.20;3.85;;;;;;;;;;5058574;28;20025;-58
2022/06/11 01:43:33;;;;;;;7.40;3.40;;;;;;;;;;5057905;28;20112;-59
2022/06/11 01:46:02;;;;;;;5.97;3.90;;;;;;;;;;5052239;28;20399;-60
2022/06/11 01:48:29;;;;;;;4.88;3.20;;;;;;;;;;5071036;28;20070;-60
2022/06/11 01:51:03;;;;;;;5.95;3.88;;;;;;;;;;5058392;28;20548;-59
2022/06/11 01:53:40;;;;;;;4.72;3.80;;;;;;;;;;5063895;28;20029;-59
2022/06/11 01:56:20;;;;;;;8.10;4.07;;;;;;;;;;5062554;28;20031;-59
2022/06/11 01:59:00;;;;;;;6.80;3.75;;;;;;;;;;5070035;28;20411;-58
2022/06/11 02:01:34;;;;;;;8.35;4.50;;;;;;;;;;5069222;28;20093;-58
2022/06/11 02:04:15;;;;;;;5.07;3.90;;;;;;;;;;5069699;28;20052;-60
2022/06/11 02:07:02;;;;;;;7.50;3.95;;;;;;;;;;5067741;28;20385;-59
2022/06/11 02:09:35;;;;;;;6.45;3.97;;;;;;;;;;5067146;28;20120;-58
2022/06/11 02:12:13;;;;;;;6.00;4.15;;;;;;;;;;5067748;28;20032;-58
2022/06/11 02:14:49;;;;;;;6.88;3.88;;;;;;;;;;5066330;28;20029;-60
2022/06/11 02:17:20;;;;;;;5.30;3.80;;;;;;;;;;5069767;28;20085;-58
2022/06/11 02:19:56;;;;;;;7.55;3.80;;;;;;;;;;5067104;28;20024;-59
2022/06/11 02:22:38;;;;;;;5.70;3.70;;;;;;;;;;5062310;28;20029;-59
2022/06/11 02:25:13;;;;;;;8.10;4.15;;;;;;;;;;5060138;28;20033;-60
2022/06/11 02:27:42;;;;;;;7.15;4.00;;;;;;;;;;5068947;28;20028;-59
2022/06/11 02:30:10;;;;;;;5.93;3.80;;;;;;;;;;5064625;28;20426;-58
2022/06/11 02:32:36;;;;;;;5.15;3.72;;;;;;;;;;5062608;28;20025;-58
2022/06/11 02:35:07;;;;;;;6.38;4.50;;;;;;;;;;5063944;28;20044;-59
2022/06/11 02:37:40;;;;;;;8.18;4.72;;;;;;;;;;5064627;28;20100;-59
2022/06/11 02:40:15;;;;;;;6.72;3.80;;;;;;;;;;5059971;28;20029;-60
2022/06/11 02:42:41;;;;;;;6.28;3.90;;;;;;;;;;5062119;28;20035;-58
2022/06/11 02:45:10;;;;;;;7.45;3.80;;;;;;;;;;5065532;28;20526;-58
2022/06/11 02:47:36;;;;;;;7.68;4.25;;;;;;;;;;5062187;28;20094;-58
2022/06/11 02:50:03;;;;;;;6.28;3.70;;;;;;;;;;5062093;28;20041;-60
2022/06/11 02:52:29;;;;;;;6.93;3.65;;;;;;;;;;5064486;28;20104;-59
2022/06/11 02:54:54;;;;;;;6.07;4.10;;;;;;;;;;5061709;28;20103;-59
2022/06/11 02:57:25;;;;;;;5.40;4.25;;;;;;;;;;5070465;28;20027;-58
2022/06/11 02:59:52;;;;;;;8.80;3.47;;;;;;;;;;5061068;28;20073;-58
2022/06/11 03:02:19;;;;;;;6.30;4.18;;;;;;;;;;5067989;28;20032;-59
2022/06/11 03:04:45;;;;;;;6.22;4.50;;;;;;;;;;5068417;28;20039;-58
2022/06/11 03:07:10;;;;;;;8.00;4.45;;;;;;;;;;5068777;28;20119;-58
2022/06/11 03:09:38;;;;;;;6.43;4.00;;;;;;;;;;5065740;28;20028;-58
2022/06/11 03:12:04;;;;;;;6.43;4.40;;;;;;;;;;5065647;28;20052;-58
2022/06/11 03:14:30;;;;;;;7.07;3.95;;;;;;;;;;5068270;28;20037;-58
2022/06/11 03:16:55;;;;;;;5.10;4.10;;;;;;;;;;5066878;28;20081;-59
2022/06/11 03:19:21;;;;;;;5.68;4.30;;;;;;;;;;5067667;28;20120;-59
2022/06/11 03:21:55;;;;;;;7.03;3.90;;;;;;;;;;5064390;28;20027;-58
2022/06/11 03:24:25;;;;;;;6.38;4.28;;;;;;;;;;5068238;28;20028;-58
2022/06/11 03:26:51;;;;;;;8.27;5.03;;;;;;;;;;5063559;28;20034;-58
2022/06/11 03:29:18;;;;;;;9.13;5.00;;;;;;;;;;5065902;28;20082;-58
2022/06/11 03:31:45;;;;;;;7.22;5.32;;;;;;;;;;5067939;28;20028;-59
2022/06/11 03:34:11;;;;;;;7.20;5.28;;;;;;;;;;5064203;28;20471;-59
2022/06/11 03:36:37;;;;;;;6.28;4.55;;;;;;;;;;5063523;28;20047;-60
2022/06/11 03:39:03;;;;;;;5.57;4.10;;;;;;;;;;5066402;28;20407;-58
2022/06/11 03:41:29;;;;;;;9.15;4.95;;;;;;;;;;5066896;28;20024;-58
2022/06/11 03:43:54;;;;;;;6.65;4.72;;;;;;;;;;5062851;28;20017;-58
2022/06/11 03:46:21;;;;;;;7.63;4.47;;;;;;;;;;5062231;28;20391;-58
2022/06/11 03:48:47;;;;;;;6.97;4.40;;;;;;;;;;5059104;28;20039;-58
2022/06/11 03:51:13;;;;;;;6.93;4.40;;;;;;;;;;5058764;28;20187;-59
2022/06/11 03:53:41;;;;;;;7.72;4.45;;;;;;;;;;5063340;28;20562;-59
2022/06/11 03:56:08;;;;;;;6.28;4.35;;;;;;;;;;5073224;28;20035;-59
2022/06/11 03:58:35;;;;;;;8.43;5.53;;;;;;;;;;5073000;28;20130;-58
2022/06/11 04:01:16;;;;;;;5.80;4.38;;;;;;;;;;5071938;28;20310;-58
2022/06/11 04:03:54;;;;;;;5.75;4.68;;;;;;;;;;5071735;28;20368;-58
2022/06/11 04:06:27;;;;;;;5.53;4.25;;;;;;;;;;5070656;28;20031;-58
2022/06/11 04:08:53;;;;;;;7.47;3.88;;;;;;;;;;5062953;28;20399;-60
2022/06/11 04:11:19;;;;;;;6.45;4.10;;;;;;;;;;5069787;28;20025;-58
2022/06/11 04:13:46;;;;;;;6.38;4.15;;;;;;;;;;5072569;28;20039;-58
2022/06/11 04:16:21;;;;;;;8.73;4.78;;;;;;;;;;5069258;28;20032;-58
2022/06/11 04:18:49;;;;;;;8.27;4.72;;;;;;;;;;5069890;28;20491;-58
2022/06/11 04:21:16;;;;;;;5.85;4.50;;;;;;;;;;5067900;28;20028;-58
2022/06/11 04:23:44;;;;;;;5.40;4.40;;;;;;;;;;5067757;28;20020;-58
2022/06/11 04:26:12;;;;;;;8.13;4.70;;;;;;;;;;5066386;28;20153;-58
2022/06/11 04:28:38;;;;;;;8.57;4.85;;;;;;;;;;5067864;28;20040;-59
2022/06/11 04:31:06;;;;;;;7.32;4.60;;;;;;;;;;5066674;28;20404;-59
2022/06/11 04:33:32;;;;;;;8.40;4.97;;;;;;;;;;5066935;28;20032;-59
2022/06/11 04:35:57;;;;;;;8.35;5.10;;;;;;;;;;5067262;28;20042;-58
2022/06/11 04:38:24;;;;;;;8.57;5.78;;;;;;;;;;5069510;28;20060;-59
2022/06/11 04:40:49;;;;;;;8.05;4.88;;;;;;;;;;5071370;28;20161;-58
2022/06/11 04:43:15;;;;;;;9.80;6.03;;;;;;;;;;5065518;28;20646;-58
2022/06/11 04:45:42;;;;;;;9.68;6.15;;;;;;;;;;5064758;28;20028;-59
2022/06/11 04:48:08;;;;;;;7.93;5.72;;;;;;;;;;5060542;28;20036;-58
2022/06/11 04:50:34;;;;;;;8.27;4.97;;;;;;;;;;5061949;28;20120;-58
2022/06/11 04:53:00;;;;;;;8.48;5.25;;;;;;;;;;5066468;28;20388;-58
2022/06/11 04:55:25;;;;;;;7.47;5.05;;;;;;;;;;5072115;28;20039;-59
2022/06/11 04:57:51;;;;;;;8.10;5.30;;;;;;;;;;5071433;28;20039;-58
2022/06/11 05:00:20;;;;;;;10.00;5.30;;;;;;;;;;5071411;28;20422;-59
2022/06/11 05:02:47;;;;;;;10.35;5.10;;;;;;;;;;5068360;28;20039;-60
2022/06/11 05:05:13;;;;;;;11.65;4.72;;;;;;;;;;5070274;28;20017;-58
2022/06/11 05:07:39;;;;;;;7.57;4.97;;;;;;;;;;5068127;28;20036;-58
2022/06/11 05:10:06;;;;;;;9.93;5.43;;;;;;;;;;5069429;28;20028;-60
2022/06/11 05:12:31;;;;;;;8.32;4.90;;;;;;;;;;5067214;28;20032;-59
2022/06/11 05:14:57;;;;;;;7.90;4.95;;;;;;;;;;5069034;28;20361;-59
2022/06/11 05:17:22;;;;;;;6.80;4.78;;;;;;;;;;5066424;28;20036;-59
2022/06/11 05:19:48;;;;;;;6.63;4.68;;;;;;;;;;5067183;28;20028;-59
2022/06/11 05:22:13;;;;;;;9.35;4.90;;;;;;;;;;5066707;28;20040;-59
2022/06/11 05:24:39;;;;;;;7.90;5.05;;;;;;;;;;5068050;28;20396;-59
2022/06/11 05:27:15;;;;;;;6.57;4.57;;;;;;;;;;5065918;28;20507;-59
2022/06/11 05:29:56;;;;;;;7.28;4.43;;;;;;;;;;5065401;28;20032;-60
2022/06/11 05:32:27;;;;;;;8.05;4.70;;;;;;;;;;5065620;28;20024;-59
2022/06/11 05:34:54;;;;;;;7.75;4.80;;;;;;;;;;5070392;28;20024;-59
2022/06/11 05:37:20;;;;;;;7.80;5.47;;;;;;;;;;5061638;28;20025;-59
2022/06/11 05:39:46;;;;;;;7.38;5.15;;;;;;;;;;5064300;28;20285;-59
2022/06/11 05:42:13;;;;;;;9.43;5.43;;;;;;;;;;5063323;28;20037;-59
2022/06/11 05:44:39;;;;;;;6.97;4.93;;;;;;;;;;5063218;28;20029;-59
2022/06/11 05:47:08;;;;;;;8.02;4.90;;;;;;;;;;5059781;28;20027;-59
2022/06/11 05:49:37;;;;;;;7.05;4.82;;;;;;;;;;5060721;28;20029;-59
2022/06/11 05:52:09;;;;;;;9.93;5.05;;;;;;;;;;5066608;28;20028;-60
2022/06/11 05:54:36;;;;;;;8.05;5.20;;;;;;;;;;5066726;28;20693;-59
2022/06/11 05:57:07;;;;;;;7.50;5.28;;;;;;;;;;5070647;28;20123;-59
2022/06/11 05:59:37;;;;;;;6.38;5.00;;;;;;;;;;5068769;28;20039;-59
2022/06/11 06:02:05;;;;;;;;;;;;;;;;;;5069228;28;20025;-59
2022/06/11 06:04:30;;;;;;;8.40;5.10;;;;;;;;;;5067952;28;20333;-59
2022/06/11 06:06:56;;;;;;;7.07;5.15;;;;;;;;;;5069698;28;20119;-59
2022/06/11 06:09:21;;;;;;;7.40;5.05;;;;;;;;;;5070119;28;20078;-59
2022/06/11 06:11:47;;;;;;;7.70;5.43;;;;;;;;;;5067470;28;20016;-59
2022/06/11 06:14:12;;;;;;;8.70;5.82;;;;;;;;;;5065308;28;20480;-58
2022/06/11 06:16:37;;;;;;;6.78;5.05;;;;;;;;;;5065469;28;20104;-59
2022/06/11 06:19:03;;;;;;;6.70;5.00;;;;;;;;;;5067262;28;20143;-60
2022/06/11 06:21:32;;;;;;;7.15;5.10;;;;;;;;;;5065199;28;20418;-59
2022/06/11 06:23:57;;;;;;;7.67;4.77;;;;;;;;;;5065809;28;20499;-59
2022/06/11 06:26:23;;;;;;;7.18;4.78;;;;;;;;;;5062118;28;20036;-59
2022/06/11 06:28:49;;;;;;;7.88;4.78;;;;;;;;;;5065045;28;20029;-59
2022/06/11 06:31:16;;;;;;;20.08;11.50;;;;;;;;;;5064245;28;20036;-59
2022/06/11 06:33:42;;;;;;;11.18;7.05;;;;;;;;;;5065093;28;20115;-59
2022/06/11 06:36:08;;;;;;;10.75;7.38;;;;;;;;;;5059153;28;20470;-59
2022/06/11 06:38:34;;;;;;;34.13;15.23;;;;;;;;;;5061243;28;20035;-59
2022/06/11 06:41:00;;;;;;;29.30;15.40;;;;;;;;;;5067099;28;20107;-60
2022/06/11 06:43:26;;;;;;;18.48;10.05;;;;;;;;;;5062877;28;20391;-60
2022/06/11 06:45:52;;;;;;;12.43;7.63;;;;;;;;;;5064677;28;20032;-59
2022/06/11 06:48:18;;;;;;;8.52;5.60;;;;;;;;;;5058154;28;20025;-59
2022/06/11 06:50:44;;;;;;;7.05;5.38;;;;;;;;;;5059818;28;20033;-59
2022/06/11 06:53:10;;;;;;;6.50;4.90;;;;;;;;;;5069295;28;20060;-59
2022/06/11 06:55:35;;;;;;;6.43;4.82;;;;;;;;;;5069353;28;20036;-59
2022/06/11 06:58:01;;;;;;;7.30;4.40;;;;;;;;;;5067572;28;20035;-59
2022/06/11 07:00:27;;;;;;;10.57;4.68;;;;;;;;;;5068838;28;20024;-59
2022/06/11 07:02:55;;;;;;;7.60;4.70;;;;;;;;;;5067546;28;20024;-59
2022/06/11 07:05:25;;;;;;;11.80;6.65;;;;;;;;;;5065854;28;20400;-59
2022/06/11 07:07:52;;;;;;;16.38;6.97;;;;;;;;;;5062008;28;20036;-59
2022/06/11 07:10:19;;;;;;;8.68;5.07;;;;;;;;;;5063367;28;20033;-59
2022/06/11 07:12:44;;;;;;;11.18;7.43;;;;;;;;;;5065424;28;20112;-58
2022/06/11 07:15:11;;;;;;;7.38;4.85;;;;;;;;;;5066196;28;20107;-59
2022/06/11 07:17:49;;;;;;;9.88;5.47;;;;;;;;;;5064191;28;20029;-58
2022/06/11 07:20:23;;;;;;;8.55;5.10;;;;;;;;;;5065368;28;20035;-58
2022/06/11 07:23:04;;;;;;;9.48;5.10;;;;;;;;;;5065383;28;20020;-59
2022/06/11 07:25:30;;;;;;;8.75;4.68;;;;;;;;;;5063794;28;20032;-59
2022/06/11 07:28:03;;;;;;;8.50;4.78;;;;;;;;;;5070916;28;20039;-59
2022/06/11 07:30:35;;;;;;;5.40;4.55;;;;;;;;;;5067950;28;20033;-59
2022/06/11 07:33:05;;;;;;;6.18;4.55;;;;;;;;;;5065962;28;20036;-59
2022/06/11 07:35:34;;;;;;;9.48;4.70;;;;;;;;;;5065953;28;20032;-59
2022/06/11 07:37:59;;;;;;;8.35;5.20;;;;;;;;;;5066679;28;20491;-59
2022/06/11 07:40:25;;;;;;;9.73;5.20;;;;;;;;;;5066919;28;20073;-59
2022/06/11 07:42:50;;;;;;;7.70;4.90;;;;;;;;;;5064017;28;20032;-58
2022/06/11 07:45:16;;;;;;;7.05;4.70;;;;;;;;;;5066336;28;20086;-59
2022/06/11 07:47:53;;;;;;;8.68;5.05;;;;;;;;;;5065094;28;20055;-60
2022/06/11 07:50:22;;;;;;;7.45;4.40;;;;;;;;;;5065378;28;20079;-59
2022/06/11 07:52:48;;;;;;;7.30;4.80;;;;;;;;;;5072369;28;20042;-60
2022/06/11 07:55:14;;;;;;;11.20;5.32;;;;;;;;;;5072331;28;20033;-59
2022/06/11 07:57:39;;;;;;;7.70;4.78;;;;;;;;;;5071961;28;20162;-63
2022/06/11 08:00:09;;;;;;;8.20;4.88;;;;;;;;;;5071873;28;20115;-60
2022/06/11 08:02:34;;;;;;;;;;;;;;;;;;5069158;28;20456;-59
2022/06/11 08:04:59;;;;;;;8.07;4.88;;;;;;;;;;5070432;28;19916;-59
2022/06/11 08:07:27;;;;;;;9.10;4.45;;;;;;;;;;5070975;28;20082;-59
2022/06/11 08:09:53;;;;;;;8.95;5.15;;;;;;;;;;5074714;28;20042;-59
2022/06/11 08:12:19;;;;;;;7.93;5.00;;;;;;;;;;5065899;28;20391;-59
2022/06/11 08:14:44;;;;;;;15.18;4.60;;;;;;;;;;5070142;28;20043;-59
2022/06/11 08:17:10;;;;;;;8.85;4.35;;;;;;;;;;5069549;28;20024;-59
2022/06/11 08:19:35;;;;;;;8.23;4.68;;;;;;;;;;5068818;28;20035;-59
2022/06/11 08:22:01;;;;;;;7.63;4.55;;;;;;;;;;5066632;28;20028;-59
2022/06/11 08:24:26;;;;;;;7.63;4.82;;;;;;;;;;5063041;28;20029;-58
2022/06/11 08:26:51;;;;;;;6.63;4.63;;;;;;;;;;5067098;28;20027;-58
2022/06/11 08:29:17;;;;;;;8.05;4.97;;;;;;;;;;5070610;28;20028;-59
2022/06/11 08:31:42;;;;;;;7.90;5.43;;;;;;;;;;5064286;28;20380;-58
2022/06/11 08:34:08;;;;;;;9.20;5.70;;;;;;;;;;5065707;28;20090;-58
2022/06/11 08:36:33;;;;;;;12.40;5.85;;;;;;;;;;5068747;28;20024;-59
2022/06/11 08:38:58;;;;;;;9.55;5.30;;;;;;;;;;5065445;28;20496;-58
2022/06/11 08:41:31;;;;;;;9.40;5.60;;;;;;;;;;5064539;28;20032;-59
2022/06/11 08:44:02;;;;;;;9.15;5.60;;;;;;;;;;5064825;28;20033;-58
2022/06/11 08:46:32;;;;;;;7.93;5.15;;;;;;;;;;5065740;28;20340;-58
2022/06/11 08:49:03;;;;;;;9.90;4.72;;;;;;;;;;5064333;28;20024;-58
2022/06/11 08:51:59;;;;;;;6.13;4.57;;;;;;;;;;5071360;28;20108;-58
2022/06/11 08:54:26;;;;;;;6.13;4.05;;;;;;;;;;5070748;28;20494;-59
2022/06/11 08:57:06;;;;;;;8.40;4.20;;;;;;;;;;5071204;28;20041;-58
2022/06/11 08:59:40;;;;;;;5.83;4.60;;;;;;;;;;5070655;28;20089;-59
2022/06/11 09:02:34;;;;;;;6.57;4.10;;;;;;;;;;5069188;28;20439;-58
2022/06/11 09:05:11;;;;;;;6.75;4.18;;;;;;;;;;5067366;28;20436;-59
2022/06/11 09:07:53;;;;;;;5.60;3.97;;;;;;;;;;5065952;28;20373;-60
2022/06/11 09:10:52;;;;;;;10.88;5.63;;;;;;;;;;5068902;28;20028;-60
2022/06/11 09:13:48;;;;;;;5.75;3.78;;;;;;;;;;5064279;28;20028;-60
2022/06/11 09:16:26;;;;;;;7.25;3.80;;;;;;;;;;5068211;28;20032;-60
2022/06/11 09:19:15;;;;;;;6.13;4.13;;;;;;;;;;5072257;28;20070;-60
2022/06/11 09:22:02;;;;;;;5.35;3.50;;;;;;;;;;5064673;28;20025;-59
2022/06/11 09:24:46;;;;;;;6.90;3.80;;;;;;;;;;5066162;28;20024;-60
2022/06/11 09:27:34;;;;;;;4.35;3.03;;;;;;;;;;5068180;28;20064;-61
2022/06/11 09:30:11;;;;;;;5.53;3.40;;;;;;;;;;5065260;28;20037;-60
2022/06/11 09:32:44;;;;;;;7.47;3.00;;;;;;;;;;5069433;28;20040;-60
2022/06/11 09:35:35;;;;;;;6.95;4.22;;;;;;;;;;5060879;28;20032;-60
2022/06/11 09:38:07;;;;;;;5.78;3.65;;;;;;;;;;5057205;28;20024;-60
2022/06/11 09:40:49;;;;;;;6.05;2.92;;;;;;;;;;5062990;28;20028;-60
2022/06/11 09:43:43;;;;;;;5.20;3.10;;;;;;;;;;5059194;28;20029;-60
2022/06/11 09:46:20;;;;;;;5.78;2.95;;;;;;;;;;5062588;28;20033;-61
2022/06/11 09:49:10;;;;;;;6.07;2.65;;;;;;;;;;5061626;28;20487;-60
2022/06/11 09:51:47;;;;;;;4.15;2.40;;;;;;;;;;5068350;28;20036;-60
2022/06/11 09:54:34;;;;;;;4.63;2.92;;;;;;;;;;5070398;28;20032;-61
2022/06/11 09:57:21;;;;;;;6.45;2.70;;;;;;;;;;5069837;28;20020;-60
2022/06/11 09:59:54;;;;;;;5.75;4.18;;;;;;;;;;5069068;28;20066;-60
2022/06/11 10:02:48;;;;;;;5.78;2.85;;;;;;;;;;5066731;28;20433;-60
2022/06/11 10:05:20;;;;;;;6.07;3.50;;;;;;;;;;5062773;28;20036;-60
2022/06/11 10:07:51;;;;;;;5.95;2.92;;;;;;;;;;5068485;28;20035;-60
2022/06/11 10:10:31;;;;;;;6.63;2.70;;;;;;;;;;5066681;28;20043;-60
2022/06/11 10:13:04;;;;;;;4.53;3.45;;;;;;;;;;5058862;28;20028;-60
2022/06/11 10:15:36;;;;;;;5.82;3.58;;;;;;;;;;5066706;28;20032;-61
2022/06/11 10:18:19;;;;;;;2.75;2.53;;;;;;;;;;5068937;28;20052;-60
2022/06/11 10:20:56;;;;;;;4.85;2.67;;;;;;;;;;5064341;28;20455;-60
2022/06/11 10:23:21;;;;;;;5.95;2.78;;;;;;;;;;5064520;28;20016;-61
2022/06/11 10:26:02;;;;;;;2.83;2.58;;;;;;;;;;5065920;28;20099;-60
2022/06/11 10:28:49;;;;;;;4.95;2.70;;;;;;;;;;5061716;28;20078;-60
2022/06/11 10:31:27;;;;;;;5.15;2.85;;;;;;;;;;5066081;28;20384;-60
2022/06/11 10:34:02;;;;;;;3.35;3.05;;;;;;;;;;5061821;28;20028;-60
2022/06/11 10:36:28;;;;;;;4.60;3.50;;;;;;;;;;5062011;28;20036;-60
2022/06/11 10:38:58;;;;;;;3.50;2.50;;;;;;;;;;5062310;28;20384;-62
2022/06/11 10:41:52;;;;;;;5.43;2.70;;;;;;;;;;5061128;28;20422;-60
2022/06/11 10:44:36;;;;;;;4.28;2.92;;;;;;;;;;5058432;28;20017;-60
2022/06/11 10:47:12;;;;;;;5.07;2.72;;;;;;;;;;5061800;28;20043;-61
2022/06/11 10:49:37;;;;;;;6.55;3.10;;;;;;;;;;5070622;28;20119;-61
2022/06/11 10:52:27;;;;;;;4.57;2.80;;;;;;;;;;5068402;28;20110;-61
2022/06/11 10:54:53;;;;;;;4.43;3.17;;;;;;;;;;5063191;28;20391;-61
2022/06/11 10:57:25;;;;;;;5.50;2.60;;;;;;;;;;5068376;28;20097;-61
2022/06/11 11:00:14;;;;;;;3.50;2.58;;;;;;;;;;5059492;28;20036;-60
2022/06/11 11:03:04;;;;;;;4.30;2.40;;;;;;;;;;5067170;28;20035;-60
2022/06/11 11:05:57;;;;;;;4.97;2.55;;;;;;;;;;5064991;28;20504;-61
2022/06/11 11:08:23;;;;;;;4.30;3.08;;;;;;;;;;5067068;28;20028;-61
2022/06/11 11:10:52;;;;;;;5.50;3.03;;;;;;;;;;5065897;28;20031;-60
2022/06/11 11:13:39;;;;;;;3.55;2.80;;;;;;;;;;5064189;28;20049;-61
2022/06/11 11:16:13;;;;;;;4.97;2.75;;;;;;;;;;5059458;28;20039;-61
2022/06/11 11:18:49;;;;;;;3.38;2.78;;;;;;;;;;5069528;28;20028;-60
2022/06/11 11:21:18;;;;;;;4.97;2.97;;;;;;;;;;5062162;28;20634;-61
2022/06/11 11:23:45;;;;;;;5.15;2.88;;;;;;;;;;5065794;28;20372;-61
2022/06/11 11:26:16;;;;;;;5.10;2.65;;;;;;;;;;5063966;28;20047;-60
2022/06/11 11:28:50;;;;;;;7.95;2.95;;;;;;;;;;5065307;28;20111;-62
2022/06/11 11:31:28;;;;;;;6.00;2.92;;;;;;;;;;5061031;28;20074;-61
2022/06/11 11:34:10;;;;;;;5.63;2.90;;;;;;;;;;5059330;28;20028;-61
2022/06/11 11:36:36;;;;;;;6.88;2.70;;;;;;;;;;5062712;28;20123;-61
2022/06/11 11:39:14;;;;;;;4.60;2.88;;;;;;;;;;5059362;28;20025;-60
2022/06/11 11:42:07;;;;;;;3.95;2.80;;;;;;;;;;5058982;28;20051;-60
2022/06/11 11:44:51;;;;;;;5.60;2.83;;;;;;;;;;5065702;28;20508;-60
2022/06/11 11:47:37;;;;;;;4.53;3.17;;;;;;;;;;5064567;28;20471;-60
2022/06/11 11:50:19;;;;;;;3.42;2.40;;;;;;;;;;5063587;28;20024;-62
2022/06/11 11:52:51;;;;;;;3.55;2.65;;;;;;;;;;5067385;28;20032;-61
2022/06/11 11:55:35;;;;;;;7.35;3.38;;;;;;;;;;5066578;28;20036;-60
2022/06/11 11:58:17;;;;;;;3.08;2.50;;;;;;;;;;5068126;28;20024;-61
2022/06/11 12:00:48;;;;;;;5.88;2.60;;;;;;;;;;5065612;28;20024;-61
2022/06/11 12:03:22;;;;;;;6.63;2.70;;;;;;;;;;5066829;28;20020;-62
2022/06/11 12:05:52;;;;;;;4.18;2.80;;;;;;;;;;5065980;28;20078;-61
2022/06/11 12:08:49;;;;;;;5.03;2.80;;;;;;;;;;5065191;28;20039;-61
2022/06/11 12:11:24;;;;;;;4.50;2.63;;;;;;;;;;5062163;28;20052;-61
2022/06/11 12:14:01;;;;;;;4.60;2.50;;;;;;;;;;5068805;28;20024;-62
2022/06/11 12:16:29;;;;;;;5.25;2.67;;;;;;;;;;5070274;28;20024;-61
2022/06/11 12:19:05;;;;;;;2.83;2.55;;;;;;;;;;5068604;28;20027;-61
2022/06/11 12:21:34;;;;;;;2.97;2.47;;;;;;;;;;5066767;28;20039;-62
2022/06/11 12:24:06;;;;;;;6.15;2.63;;;;;;;;;;5066126;28;20040;-61
2022/06/11 12:26:37;;;;;;;5.13;2.80;;;;;;;;;;5064612;28;20472;-61
2022/06/11 12:29:30;;;;;;;7.13;2.80;;;;;;;;;;5066723;28;20107;-61
2022/06/11 12:32:00;;;;;;;4.70;2.38;;;;;;;;;;5064217;28;20061;-61
2022/06/11 12:34:29;;;;;;;4.57;2.80;;;;;;;;;;5062974;28;20040;-61
2022/06/11 12:37:11;;;;;;;4.60;2.50;;;;;;;;;;5065627;28;20020;-61
2022/06/11 12:39:57;;;;;;;4.15;2.55;;;;;;;;;;5068229;28;20119;-61
2022/06/11 12:42:31;;;;;;;3.55;2.72;;;;;;;;;;5059920;28;20025;-61
2022/06/11 12:45:17;;;;;;;5.80;2.47;;;;;;;;;;5062623;28;20483;-61
2022/06/11 12:47:55;;;;;;;7.15;2.50;;;;;;;;;;5071246;28;20041;-62
2022/06/11 12:50:42;;;;;;;5.40;2.70;;;;;;;;;;5071259;28;20624;-61
2022/06/11 12:53:16;;;;;;;4.30;2.58;;;;;;;;;;5071425;28;20806;-61
2022/06/11 12:55:58;;;;;;;5.63;2.80;;;;;;;;;;5069508;28;20032;-62
2022/06/11 12:59:00;;;;;;;5.38;2.60;;;;;;;;;;5070941;28;20024;-62
2022/06/11 13:01:56;;;;;;;4.18;2.72;;;;;;;;;;5068015;28;20032;-61
2022/06/11 13:04:24;;;;;;;7.80;5.45;;;;;;;;;;5068502;28;20028;-61
2022/06/11 13:06:56;;;;;;;3.92;2.60;;;;;;;;;;5068706;28;20032;-62
2022/06/11 13:09:58;;;;;;;3.10;2.40;;;;;;;;;;5065159;28;20091;-61
2022/06/11 13:12:41;;;;;;;5.43;2.40;;;;;;;;;;5056928;28;20104;-61
2022/06/11 13:15:51;;;;;;;4.88;2.60;;;;;;;;;;5066660;28;20066;-60
2022/06/11 13:18:44;;;;;;;4.05;2.42;;;;;;;;;;5063199;28;20036;-61
2022/06/11 13:21:15;;;;;;;5.45;2.40;;;;;;;;;;5062200;28;20028;-60
2022/06/11 13:23:46;;;;;;;5.05;2.38;;;;;;;;;;5070470;28;20412;-61
2022/06/11 13:26:20;;;;;;;7.18;2.33;;;;;;;;;;5069456;28;20028;-61
2022/06/11 13:29:14;;;;;;;3.53;2.40;;;;;;;;;;5065614;28;20107;-61
2022/06/11 13:32:10;;;;;;;3.28;2.30;;;;;;;;;;5064438;28;20025;-62
2022/06/11 13:34:54;;;;;;;4.50;2.10;;;;;;;;;;5063760;28;20033;-61
2022/06/11 13:37:54;;;;;;;3.53;2.30;;;;;;;;;;5061613;28;20036;-61
2022/06/11 13:40:51;;;;;;;4.95;2.35;;;;;;;;;;5059754;28;20037;-61
2022/06/11 13:43:22;;;;;;;5.20;2.33;;;;;;;;;;5058290;28;20037;-61
2022/06/11 13:46:11;;;;;;;6.28;2.50;;;;;;;;;;5067544;28;20028;-61
2022/06/11 13:48:49;;;;;;;4.40;2.40;;;;;;;;;;5071936;28;20035;-62
2022/06/11 13:51:22;;;;;;;4.05;2.13;;;;;;;;;;5067932;28;20036;-61
2022/06/11 13:57:02;;;;;;;4.03;2.30;;;;;;;;;;5060249;28;20047;-61
2022/06/11 13:59:46;;;;;;;4.53;2.47;;;;;;;;;;5067879;28;20035;-62
2022/06/11 14:02:43;;;;;;;4.93;1.90;;;;;;;;;;5066275;28;20396;-62
2022/06/11 14:05:17;;;;;;;3.10;2.10;;;;;;;;;;5061697;28;20044;-63
2022/06/11 14:07:45;;;;;;;3.45;2.25;;;;;;;;;;5067425;28;20029;-62
2022/06/11 14:10:21;;;;;;;3.83;2.35;;;;;;;;;;5068951;28;20028;-62
2022/06/11 14:13:11;;;;;;;4.53;2.30;;;;;;;;;;5065384;28;20087;-62
2022/06/11 14:15:47;;;;;;;5.57;2.58;;;;;;;;;;5068179;28;20488;-62
2022/06/11 14:18:21;;;;;;;4.32;2.22;;;;;;;;;;5063061;28;20177;-61
2022/06/11 14:20:54;;;;;;;2.70;2.28;;;;;;;;;;5064163;28;20502;-61
2022/06/11 14:23:22;;;;;;;4.32;2.10;;;;;;;;;;5068084;28;20507;-61
2022/06/11 14:26:05;;;;;;;2.40;2.20;;;;;;;;;;5065653;28;20028;-61
2022/06/11 14:28:34;;;;;;;6.72;2.30;;;;;;;;;;5063596;28;20032;-60
2022/06/11 14:31:02;;;;;;;2.58;2.13;;;;;;;;;;5063184;28;20025;-60
2022/06/11 14:33:41;;;;;;;3.63;2.30;;;;;;;;;;5068809;28;20177;-61
2022/06/11 14:36:18;;;;;;;5.18;2.33;;;;;;;;;;5063097;28;20483;-62
2022/06/11 14:38:49;;;;;;;5.75;2.33;;;;;;;;;;5066738;28;20372;-61
2022/06/11 14:41:20;;;;;;;6.32;2.40;;;;;;;;;;5062553;28;20115;-61
2022/06/11 14:43:57;;;;;;;4.45;2.00;;;;;;;;;;5060677;28;20028;-61
2022/06/11 14:46:38;;;;;;;5.28;2.33;;;;;;;;;;5069289;28;20031;-62
2022/06/11 14:49:14;;;;;;;6.28;2.30;;;;;;;;;;5069746;28;20059;-61
2022/06/11 14:51:43;;;;;;;4.45;2.63;;;;;;;;;;5067222;28;20052;-61
2022/06/11 14:54:19;;;;;;;4.75;2.40;;;;;;;;;;5068295;28;20479;-61
2022/06/11 14:56:45;;;;;;;6.70;2.28;;;;;;;;;;5067988;28;20068;-61
2022/06/11 14:59:38;;;;;;;3.83;2.22;;;;;;;;;;5068995;28;20443;-62
2022/06/11 15:02:28;;;;;;;3.20;2.28;;;;;;;;;;5060413;28;20549;-62
2022/06/11 15:04:59;;;;;;;3.47;2.40;;;;;;;;;;5068043;28;20036;-61
2022/06/11 15:07:34;;;;;;;4.53;2.55;;;;;;;;;;5065460;28;20044;-62
2022/06/11 15:10:21;;;;;;;5.03;2.33;;;;;;;;;;5066072;28;20036;-61
2022/06/11 15:13:14;;;;;;;5.15;2.63;;;;;;;;;;5064911;28;20035;-62
2022/06/11 15:15:54;;;;;;;4.63;2.58;;;;;;;;;;5065528;28;20032;-61
2022/06/11 15:18:28;;;;;;;12.95;9.40;;;;;;;;;;5064752;28;20398;-61
2022/06/11 15:20:59;;;;;;;5.63;2.60;;;;;;;;;;5063219;28;20033;-61
2022/06/11 15:23:27;;;;;;;7.03;2.97;;;;;;;;;;5063865;28;20029;-61